Latest Coastal Weather Observations for Low Head

IDT60701

Issued at 6:52 pm EST Tuesday 27 June 2017 (issued every 10 minutes, with the page automatically refreshed every 10 minutes)

About coastal observations | Map of coastal stations | Coastal observations for TAS | Marine services | Other Formats
Station Details ID: 091293 Name: LOW HEAD Lat: -41.05 Lon: 146.79 Height: 3.0 m
Data from the previous 72 hours. | See also: Recent months at Low Head
Date/Time
EST
Temp
°C
Wind Pressure Rain since
9am
mm
Weather Cloud Vis
km
Sea
Height
m
Swell
Dir  Spd
kts
Gust
kts
hPa Trend Height
m
Period
s
Dir
27/06:30pm 8.6 E 6 7 1022.7 - 0.0 - - - - - - -
27/06:00pm 8.9 E 5 5 1022.7 - 0.0 - - - - - - -
27/05:30pm 9.3 ESE 4 6 1022.7 - 0.0 - - - - - - -
27/05:00pm 10.0 N 2 5 1022.6 - 0.0 - - - - - - -
27/04:30pm 10.1 N 3 4 1022.7 - 0.0 - - - - - - -
27/04:00pm 10.6 CALM 0 3 1022.8 - 0.0 - - - - - - -
27/03:30pm 10.4 CALM 0 0 1022.9 - 0.0 - - - - - - -
27/03:00pm 10.7 CALM 0 0 1022.9 - 0.0 - - - - - - -
27/02:30pm 10.6 NNE 2 4 1022.9 - 0.0 - - - - - - -
27/02:00pm 10.2 CALM 0 0 1023.1 - 0.0 - - - - - - -
27/01:30pm 10.3 NE 2 3 1023.4 - 0.0 - - - - - - -
27/01:00pm 9.3 S 5 6 1023.6 - 0.0 - - - - - - -
27/12:30pm 8.5 S 7 8 1023.9 - 0.0 - - - - - - -
27/12:00pm 7.8 S 7 9 1024.3 - 0.0 - - - - - - -
27/11:30am 6.7 S 7 8 1024.7 - 0.0 - - - - - - -
27/11:00am 6.1 SSE 7 8 1024.9 - 0.0 - - - - - - -
27/10:30am 5.0 SSE 7 9 1025.2 - 0.0 - - - - - - -
27/10:00am 3.9 SSE 10 12 1025.1 - 0.0 - - - - - - -
27/09:30am 3.3 SSE 12 14 1025.1 - 0.0 - - - - - - -
27/09:00am 3.0 SSE 11 13 1025.0 - 0.4 - - - - - - -
27/08:30am 2.7 SSE 11 13 1024.8 - 0.4 - - - - - - -
27/08:00am 3.1 SSE 11 13 1024.6 - 0.4 - - - - - - -
27/07:30am 2.9 SSE 9 12 1024.6 - 0.2 - - - - - - -
27/07:00am 3.4 SSE 10 12 1024.6 - 0.2 - - - - - - -
27/06:30am 3.2 SSE 9 11 1024.5 - 0.2 - - - - - - -
27/06:00am 4.2 SSE 9 12 1024.3 - 0.2 - - - - - - -
27/05:30am 4.2 SSE 9 11 1024.3 - 0.2 - - - - - - -
27/05:00am 4.6 SSE 9 12 1024.2 - 0.2 - - - - - - -
27/04:30am 4.4 SSE 9 11 1024.2 - 0.2 - - - - - - -
27/04:00am 4.6 SSE 9 13 1024.0 - 0.2 - - - - - - -
27/03:30am 5.0 S 9 11 1023.9 - 0.2 - - - - - - -
27/03:00am 5.2 SSW 9 10 1023.8 - 0.2 - - - - - - -
27/02:30am 4.7 SSE 9 12 1023.8 - 0.2 - - - - - - -
27/02:00am 4.5 SSE 11 13 1023.4 - 0.2 - - - - - - -
27/01:30am 5.2 SSE 11 14 1023.1 - 0.0 - - - - - - -
27/01:00am 5.1 SSE 9 11 1023.3 - 0.0 - - - - - - -
27/12:30am 5.2 SSE 8 10 1023.5 - 0.0 - - - - - - -
27/12:00am 5.3 SSE 8 10 1023.6 - 0.0 - - - - - - -
 
Date/Time
EST
Temp
°C
Wind Pressure Rain since
9am
mm
Weather Cloud Vis
km
Sea
Height
m
Swell
Dir  Spd
kts
Gust
kts
hPa Trend Height
m
Period
s
Dir
26/11:30pm 6.3 S 8 9 1023.6 - 0.0 - - - - - - -
26/11:00pm 5.0 SSE 8 9 1023.7 - 0.0 - - - - - - -
26/10:30pm 5.1 SSE 7 7 1023.8 - 0.0 - - - - - - -
26/10:00pm 5.8 SSE 6 7 1023.6 - 0.0 - - - - - - -
26/09:30pm 5.7 SSE 7 8 1023.4 - 0.0 - - - - - - -
26/09:00pm 6.3 SSE 6 8 1023.3 - 0.0 - - - - - - -
26/08:30pm 7.0 SE 3 5 1023.1 - 0.0 - - - - - - -
26/08:00pm 7.6 SSE 5 6 1022.9 - 0.0 - - - - - - -
26/07:30pm 8.0 SSE 5 6 1022.7 - 0.0 - - - - - - -
26/07:00pm 8.9 S 2 5 1022.5 - 0.0 - - - - - - -
26/06:30pm 9.2 E 3 5 1022.1 - 0.0 - - - - - - -
26/06:00pm 10.5 SSW 2 3 1021.9 - 0.0 - - - - - - -
26/05:30pm 11.1 SW 5 7 1021.7 - 0.0 - - - - - - -
26/05:00pm 11.4 WSW 7 7 1021.5 - 0.0 - - - - - - -
26/04:30pm 11.7 W 8 9 1021.3 - 0.0 - - - - - - -
26/04:00pm 12.0 W 9 10 1021.2 - 0.0 - - - - - - -
26/03:30pm 12.4 WNW 8 9 1021.1 - 0.0 - - - - - - -
26/03:00pm 12.7 WNW 7 8 1020.8 - 0.0 - - - - - - -
26/02:30pm 12.0 WSW 6 8 1020.8 - 0.0 - - - - - - -
26/02:00pm 11.7 W 3 6 1020.5 - 0.0 - - - - - - -
26/01:30pm 12.3 CALM 0 0 1020.6 - 0.0 - - - - - - -
26/01:00pm 11.7 CALM 0 0 1020.5 - 0.0 - - - - - - -
26/12:30pm 10.6 CALM 0 2 1020.4 - 0.0 - - - - - - -
26/12:00pm 10.4 SSW 3 5 1020.6 - 0.0 - - - - - - -
26/11:30am 9.8 S 3 5 1020.7 - 0.0 - - - - - - -
26/11:00am 9.0 SSE 6 7 1020.7 - 0.0 - - - - - - -
26/10:30am 7.9 S 9 11 1020.5 - 0.0 - - - - - - -
26/10:00am 7.4 S 9 11 1020.2 - 0.0 - - - - - - -
26/09:30am 6.7 SSE 6 8 1019.7 - 0.0 - - - - - - -
26/09:00am 7.0 S 7 9 1019.2 - 3.8 - - - - - - -
26/08:30am 7.0 S 6 7 1018.7 - 3.8 - - - - - - -
26/08:00am 6.2 SSE 5 6 1018.3 - 3.8 - - - - - - -
26/07:30am 6.5 SSE 7 8 1017.8 - 3.8 - - - - - - -
26/07:00am 8.3 SSW 8 11 1017.3 - 3.8 - - - - - - -
26/06:30am 8.2 SSW 9 12 1016.7 - 3.8 - - - - - - -
26/06:00am 8.5 SW 12 15 1016.2 - 3.8 - - - - - - -
26/05:30am 8.1 SW 10 14 1015.9 - 3.8 - - - - - - -
26/05:00am 9.1 WSW 15 17 1015.4 - 3.8 - - - - - - -
26/04:30am 9.3 WSW 15 18 1015.2 - 3.8 - - - - - - -
26/04:00am 9.3 WSW 15 16 1015.1 - 3.8 - - - - - - -
26/03:30am 9.4 WSW 15 17 1014.9 - 3.8 - - - - - - -
26/03:00am 9.4 WSW 15 17 1014.8 - 3.8 - - - - - - -
26/02:30am 9.5 WSW 16 18 1014.5 - 3.8 - - - - - - -
26/02:00am 9.7 WSW 17 19 1013.9 - 3.8 - - - - - - -
26/01:30am 10.6 WSW 19 22 1013.3 - 3.8 - - - - - - -
26/01:00am 10.6 WSW 18 21 1013.0 - 3.8 - - - - - - -
26/12:30am 10.8 W 19 22 1012.7 - 3.8 - - - - - - -
26/12:00am 10.7 W 19 22 1012.6 - 3.8 - - - - - - -
 
Date/Time
EST
Temp
°C
Wind Pressure Rain since
9am
mm
Weather Cloud Vis
km
Sea
Height
m
Swell
Dir  Spd
kts
Gust
kts
hPa Trend Height
m
Period
s
Dir
25/11:30pm 11.0 WSW 20 23 1012.3 - 3.8 - - - - - - -
25/11:00pm 11.0 W 19 23 1012.1 - 3.8 - - - - - - -
25/10:30pm 10.9 W 21 23 1011.5 - 3.8 - - - - - - -
25/10:00pm 11.1 W 20 24 1011.2 - 3.8 - - - - - - -
25/09:30pm 11.2 W 23 26 1010.7 - 3.8 - - - - - - -
25/09:00pm 11.0 W 23 27 1010.3 - 3.8 - - - - - - -
25/08:30pm 11.1 W 22 26 1009.8 - 3.8 - - - - - - -
25/08:00pm 11.0 W 22 25 1009.6 - 3.8 - - - - - - -
25/07:30pm 11.0 W 21 25 1009.0 - 3.8 - - - - - - -
25/07:00pm 11.2 W 22 25 1008.3 - 3.8 - - - - - - -
25/06:30pm 11.1 W 21 25 1007.8 - 3.8 - - - - - - -
25/06:00pm 11.4 W 23 28 1007.4 - 3.8 - - - - - - -
25/05:30pm 11.5 W 24 30 1006.8 - 3.8 - - - - - - -
25/05:00pm 11.8 W 24 30 1006.2 - 3.8 - - - - - - -
25/04:30pm 11.8 W 22 26 1005.7 - 3.8 - - - - - - -
25/04:00pm 12.3 W 24 29 1005.3 - 3.8 - - - - - - -
25/03:30pm 12.2 W 25 30 1005.2 - 3.8 - - - - - - -
25/03:00pm 12.3 W 26 31 1004.9 - 3.8 - - - - - - -
25/02:30pm 12.3 WNW 24 29 1004.9 - 3.8 - - - - - - -
25/02:00pm 10.9 W 24 29 1005.4 - 3.8 - - - - - - -
25/01:43pm 11.5 WNW 29 53 1005.4 - 3.0 - - - - - - -
25/01:42pm 11.6 WNW 27 38 1005.4 - 3.0 - - - - - - -
25/01:30pm 11.9 WNW 27 35 1005.7 - 1.4 - - - - - - -
25/01:00pm 12.5 WNW 28 34 1006.1 - 0.6 - - - - - - -
25/12:30pm 12.1 NW 25 31 1006.5 - 0.6 - - - - - - -
25/12:00pm 11.1 WNW 21 25 1007.2 - 0.6 Recent precip. - - - - - -
25/11:30am 11.3 W 24 29 1007.7 - 0.6 - - - - - - -
25/11:16am 11.5 WNW 24 35 1007.9 - 0.4 - - - - - - -
25/11:00am 12.1 WNW 24 30 1008.0 - 0.2 - - - - - - -
25/10:30am 11.7 WNW 24 28 1008.4 - 0.0 - - - - - - -
25/10:00am 11.4 WNW 26 31 1008.5 - 0.0 - - - - - - -
25/09:30am 11.8 WNW 24 30 1008.5 - 0.0 - - - - - - -
25/09:00am 11.5 WNW 23 29 1008.5 - 0.8 - - - - - - -
25/08:30am 11.2 WNW 24 30 1008.7 - 0.8 - - - - - - -
25/08:00am 11.2 WNW 24 29 1008.8 - 0.8 - - - - - - -
25/07:30am 11.1 WNW 26 30 1008.8 - 0.6 - - - - - - -
25/07:00am 10.4 WNW 24 32 1008.9 - 0.6 - - - - - - -
25/06:30am 11.0 WNW 24 28 1008.7 - 0.6 - - - - - - -
25/06:00am 10.5 WNW 22 28 1008.7 - 0.6 Recent precip. - - - - - -
25/05:30am 10.4 WNW 22 29 1008.9 - 0.6 - - - - - - -
25/05:00am 11.0 W 23 29 1009.0 - 0.2 - - - - - - -
25/04:30am 10.6 W 21 24 1009.2 - 0.2 - - - - - - -
25/04:00am 10.5 W 18 22 1009.6 - 0.2 - - - - - - -
25/03:30am 10.9 W 19 24 1010.0 - 0.0 - - - - - - -
25/03:00am 10.9 W 19 21 1010.3 - 0.0 - - - - - - -
25/02:30am 10.8 W 19 22 1010.6 - 0.0 - - - - - - -
25/02:00am 10.9 W 18 22 1010.7 - 0.0 - - - - - - -
25/01:30am 10.4 W 19 22 1010.9 - 0.0 - - - - - - -
25/01:00am 10.3 W 19 23 1011.0 - 0.0 - - - - - - -
25/12:30am 10.8 W 18 22 1011.3 - 0.0 - - - - - - -
25/12:00am 10.3 W 19 24 1011.5 - 0.0 - - - - - - -
 
Date/Time
EST
Temp
°C
Wind Pressure Rain since
9am
mm
Weather Cloud Vis
km
Sea
Height
m
Swell
Dir  Spd
kts
Gust
kts
hPa Trend Height
m
Period
s
Dir
24/11:30pm 10.4 W 19 22 1011.9 - 0.0 - - - - - - -
24/11:00pm 10.5 W 20 23 1012.0 - 0.0 - - - - - - -
24/10:30pm 10.6 W 20 25 1012.3 - 0.0 - - - - - - -
24/10:00pm 10.2 W 20 23 1012.5 - 0.0 - - - - - - -
24/09:30pm 10.4 W 21 25 1012.5 - 0.0 - - - - - - -
24/09:00pm 10.3 W 20 24 1012.7 - 0.0 - - - - - - -
24/08:30pm 10.4 W 21 25 1012.8 - 0.0 - - - - - - -
24/08:00pm 10.1 W 20 24 1012.8 - 0.0 - - - - - - -
24/07:30pm 10.2 W 22 25 1012.7 - 0.0 - - - - - - -
24/07:00pm 10.3 W 19 24 1012.6 - 0.0 - - - - - - -

Other Formats:

Comma delimited format used in spreadsheet applications
http://www.bom.gov.au/fwo/IDT60701/IDT60701.95964.axf

JavaScript Object Notation format (JSON) in row-major order
http://www.bom.gov.au/fwo/IDT60701/IDT60701.95964.json